Bodie, Washington
Current Conditions -  °F | °C
As of 8:20 AM on Monday 26 Jan 2015 (Local Time) from KOMK Reporting Station
Moderate Fog Moderate Fog  
Wind Chill: 29°   Ceiling: 200
Heat Index: 33°   Visibility: 0.25mi
Dew Point: 32°   Wind: 5mph
Humidity: 96%   Direction: 180°S
Pressure: 30.1"   Gusts: NA
Location:  48.8377°N, 118.92°W
Report Text: KOMK 261620Z AUTO 18004KT 1/4SM FG VV002 01/00 A3010 RMK AO2 T00060000
Loading
Personal Weather Stations






























Interactive Weather Map New forecast layout! Learn more

10-Day Weather Forecast

Advertisements
Track Severe Weather on mobile